createdAt,value
2022-12-25T00:02:13.400Z,100.00
2022-12-25T00:04:41.341Z,100.00
2022-12-25T00:07:08.723Z,100.00
2022-12-25T00:09:36.598Z,100.00
2022-12-25T00:12:04.404Z,100.00
2022-12-25T00:14:31.820Z,100.00
2022-12-25T00:16:59.252Z,100.00
2022-12-25T00:19:27.484Z,100.00
2022-12-25T00:21:54.987Z,100.00
2022-12-25T00:24:22.411Z,100.00
2022-12-25T00:26:50.178Z,100.00
2022-12-25T00:29:17.598Z,100.00
2022-12-25T00:31:45.142Z,100.00
2022-12-25T00:34:12.936Z,100.00
2022-12-25T00:36:42.088Z,100.00
2022-12-25T00:39:09.786Z,100.00
2022-12-25T00:41:56.123Z,100.00
2022-12-25T00:44:23.634Z,100.00
2022-12-25T00:46:51.424Z,100.00
2022-12-25T00:49:18.965Z,100.00
2022-12-25T00:51:46.419Z,100.00
2022-12-25T00:54:14.193Z,100.00
2022-12-25T00:56:41.617Z,100.00
2022-12-25T00:59:09.346Z,100.00
2022-12-25T01:01:38.144Z,100.00
2022-12-25T01:04:06.198Z,100.00
2022-12-25T01:06:33.694Z,100.00
2022-12-25T01:09:19.888Z,100.00
2022-12-25T01:11:47.371Z,100.00
2022-12-25T01:14:15.269Z,100.00
2022-12-25T01:16:42.864Z,100.00
2022-12-25T01:19:11.314Z,100.00
2022-12-25T01:21:39.342Z,100.00
2022-12-25T01:24:07.102Z,100.00
2022-12-25T01:26:34.517Z,100.00
2022-12-25T01:29:02.695Z,100.00
2022-12-25T01:31:30.192Z,100.00
2022-12-25T01:33:57.747Z,100.00
2022-12-25T01:36:26.586Z,100.00
2022-12-25T01:38:54.607Z,100.00
2022-12-25T01:41:23.985Z,100.00
2022-12-25T01:44:15.992Z,100.00
2022-12-25T01:46:43.931Z,100.00
2022-12-25T01:49:16.687Z,100.00
2022-12-25T01:51:54.233Z,100.00
2022-12-25T01:54:27.001Z,100.00
2022-12-25T01:56:57.977Z,100.00
2022-12-25T01:59:27.426Z,100.00
2022-12-25T02:01:57.017Z,100.00
2022-12-25T02:04:40.163Z,100.00
2022-12-25T02:07:13.063Z,100.00
2022-12-25T02:09:41.885Z,100.00
2022-12-25T02:12:14.899Z,100.00
2022-12-25T02:14:42.888Z,100.00
2022-12-25T02:17:16.270Z,100.00
2022-12-25T02:20:06.081Z,100.00
2022-12-25T02:22:50.818Z,100.00
2022-12-25T02:25:45.322Z,100.00
2022-12-25T02:28:15.368Z,100.00
2022-12-25T02:30:50.032Z,100.00
2022-12-25T02:33:44.830Z,100.00
2022-12-25T02:36:16.594Z,100.00
2022-12-25T02:39:08.290Z,100.00
2022-12-25T02:41:39.614Z,100.00
2022-12-25T02:44:31.366Z,100.00
2022-12-25T02:47:18.121Z,100.00
2022-12-25T02:50:05.369Z,100.00
2022-12-25T02:52:51.905Z,99.90
2022-12-25T02:55:43.127Z,99.98
2022-12-25T02:58:33.733Z,100.00
2022-12-25T03:01:24.673Z,99.95
2022-12-25T03:04:14.233Z,99.95
2022-12-25T03:06:50.917Z,99.84
2022-12-25T03:09:43.249Z,100.00
2022-12-25T03:12:20.470Z,99.71
2022-12-25T03:15:07.595Z,99.76
2022-12-25T03:17:35.822Z,99.91
2022-12-25T03:20:23.710Z,99.67
2022-12-25T03:23:11.637Z,99.69
2022-12-25T03:25:58.063Z,99.63
2022-12-25T03:28:25.650Z,99.89
2022-12-25T03:31:12.967Z,99.88
2022-12-25T03:34:27.307Z,99.83
2022-12-25T03:37:35.442Z,99.91
2022-12-25T03:40:36.999Z,99.95
2022-12-25T03:43:34.085Z,99.75
2022-12-25T03:46:24.465Z,99.87
2022-12-25T03:49:18.435Z,99.60
2022-12-25T03:52:06.514Z,99.50
2022-12-25T03:54:55.923Z,99.56
2022-12-25T03:57:42.027Z,99.59
2022-12-25T04:00:28.977Z,99.67
2022-12-25T04:03:15.352Z,99.86
2022-12-25T04:06:01.633Z,99.81
2022-12-25T04:08:48.082Z,99.87
2022-12-25T04:11:34.541Z,100.00
2022-12-25T04:14:21.000Z,99.96
2022-12-25T04:17:06.630Z,100.00
2022-12-25T04:19:53.013Z,100.00
2022-12-25T04:22:38.990Z,100.00
2022-12-25T04:25:25.906Z,100.00
2022-12-25T04:28:11.990Z,100.00
2022-12-25T04:30:58.580Z,100.00
2022-12-25T04:34:04.302Z,100.00
2022-12-25T04:36:32.866Z,100.00
2022-12-25T04:39:00.413Z,100.00
2022-12-25T04:41:27.886Z,100.00
2022-12-25T04:43:55.642Z,100.00
2022-12-25T04:46:23.176Z,100.00
2022-12-25T04:48:50.907Z,100.00
2022-12-25T04:51:24.001Z,100.00
2022-12-25T04:53:52.739Z,100.00
2022-12-25T04:56:21.309Z,100.00
2022-12-25T04:58:49.174Z,100.00
2022-12-25T05:01:17.270Z,100.00
2022-12-25T05:03:45.118Z,100.00
2022-12-25T05:06:12.870Z,100.00
2022-12-25T05:08:40.292Z,100.00
2022-12-25T05:11:11.089Z,100.00
2022-12-25T05:13:39.025Z,100.00
2022-12-25T05:16:13.406Z,100.00
2022-12-25T05:18:41.579Z,100.00
2022-12-25T05:21:11.267Z,100.00
2022-12-25T05:23:39.266Z,100.00
2022-12-25T05:26:07.581Z,100.00
2022-12-25T05:28:35.880Z,100.00
2022-12-25T05:31:03.467Z,100.00
2022-12-25T05:33:31.355Z,100.00
2022-12-25T05:36:01.959Z,100.00
2022-12-25T05:38:29.845Z,100.00
2022-12-25T05:40:58.784Z,100.00
2022-12-25T05:43:26.877Z,100.00
2022-12-25T05:45:54.347Z,100.00
2022-12-25T05:48:22.488Z,100.00
2022-12-25T05:50:50.090Z,100.00
2022-12-25T05:53:17.478Z,100.00
2022-12-25T05:55:45.245Z,100.00
2022-12-25T05:58:13.679Z,100.00
2022-12-25T06:00:43.450Z,100.00
2022-12-25T06:03:11.201Z,100.00
2022-12-25T06:05:39.690Z,100.00
2022-12-25T06:08:07.152Z,100.00
2022-12-25T06:10:36.126Z,100.00
2022-12-25T06:13:03.984Z,100.00
2022-12-25T06:15:31.469Z,100.00
2022-12-25T06:18:02.486Z,100.00
2022-12-25T06:20:30.287Z,100.00
2022-12-25T06:22:57.990Z,100.00
2022-12-25T06:25:25.895Z,100.00
2022-12-25T06:27:53.371Z,100.00
2022-12-25T06:30:20.876Z,100.00
2022-12-25T06:32:48.672Z,100.00
2022-12-25T06:35:16.112Z,100.00
2022-12-25T06:37:43.536Z,100.00
2022-12-25T06:40:13.118Z,100.00
2022-12-25T06:42:40.556Z,100.00
2022-12-25T06:45:08.527Z,100.00
2022-12-25T06:47:37.681Z,100.00
2022-12-25T06:50:07.953Z,100.00
2022-12-25T06:52:35.700Z,100.00
2022-12-25T06:55:03.225Z,100.00
2022-12-25T06:57:30.787Z,100.00
2022-12-25T06:59:58.504Z,100.00
2022-12-25T07:02:26.289Z,99.99
2022-12-25T07:04:54.084Z,100.00
2022-12-25T07:07:23.594Z,100.00
2022-12-25T07:09:51.106Z,99.97
2022-12-25T07:12:21.644Z,100.00
2022-12-25T07:14:50.180Z,100.00
2022-12-25T07:17:19.729Z,100.00
2022-12-25T07:19:47.578Z,98.82
2022-12-25T07:22:16.243Z,99.12
2022-12-25T07:24:43.737Z,99.02
2022-12-25T07:27:11.248Z,99.02
2022-12-25T07:29:39.132Z,98.73
2022-12-25T07:32:07.322Z,98.59
2022-12-25T07:34:34.759Z,98.67
2022-12-25T07:37:02.720Z,99.06
2022-12-25T07:39:30.282Z,98.61
2022-12-25T07:41:57.720Z,98.25
2022-12-25T07:44:27.011Z,98.82
2022-12-25T07:46:54.490Z,99.22
2022-12-25T07:49:22.058Z,99.31
2022-12-25T07:51:49.721Z,98.81
2022-12-25T07:54:17.235Z,99.40
2022-12-25T07:56:44.758Z,99.60
2022-12-25T07:59:12.581Z,99.63
2022-12-25T08:01:40.293Z,99.14
2022-12-25T08:04:10.136Z,98.58
2022-12-25T08:06:38.016Z,98.26
2022-12-25T08:09:08.284Z,97.86
2022-12-25T08:11:37.231Z,97.52
2022-12-25T08:14:09.011Z,97.05
2022-12-25T08:16:39.850Z,96.52
2022-12-25T08:19:09.212Z,96.36
2022-12-25T08:21:37.737Z,96.50
2022-12-25T08:24:05.503Z,97.14
2022-12-25T08:26:33.027Z,97.85
2022-12-25T08:29:00.717Z,98.23
2022-12-25T08:31:29.851Z,98.36
2022-12-25T08:33:59.025Z,97.75
2022-12-25T08:36:27.203Z,97.96
2022-12-25T08:39:02.708Z,98.39
2022-12-25T08:41:32.379Z,98.32
2022-12-25T08:43:59.820Z,96.72
2022-12-25T08:46:27.276Z,95.86
2022-12-25T08:48:56.782Z,95.48
2022-12-25T08:51:26.216Z,95.58
2022-12-25T08:53:58.894Z,94.54
2022-12-25T08:56:27.068Z,93.65
2022-12-25T08:58:54.712Z,92.73
2022-12-25T09:01:22.323Z,93.23
2022-12-25T09:03:50.176Z,92.34
2022-12-25T09:06:17.647Z,92.06
2022-12-25T09:08:49.158Z,91.04
2022-12-25T09:11:19.753Z,90.68
2022-12-25T09:13:48.899Z,90.67
2022-12-25T09:16:20.992Z,90.91
2022-12-25T09:18:49.173Z,90.84
2022-12-25T09:21:17.606Z,90.92
2022-12-25T09:23:45.088Z,90.73
2022-12-25T09:26:15.105Z,90.41
2022-12-25T09:28:48.759Z,89.98
2022-12-25T09:31:18.753Z,90.10
2022-12-25T09:33:46.648Z,90.40
2022-12-25T09:36:14.219Z,89.61
2022-12-25T09:38:41.771Z,89.17
2022-12-25T09:41:34.054Z,88.66
2022-12-25T09:44:11.359Z,88.96
2022-12-25T09:46:43.713Z,88.07
2022-12-25T09:49:38.301Z,87.36
2022-12-25T09:52:19.901Z,87.86
2022-12-25T09:55:00.071Z,87.03
2022-12-25T09:57:27.938Z,86.05
2022-12-25T09:59:56.392Z,87.03
2022-12-25T10:02:42.474Z,86.49
2022-12-25T10:05:27.547Z,86.10
2022-12-25T10:08:03.857Z,85.70
2022-12-25T10:10:46.762Z,84.19
2022-12-25T10:13:57.380Z,82.74
2022-12-25T10:16:48.548Z,83.29
2022-12-25T10:19:40.579Z,83.31
2022-12-25T10:22:47.943Z,82.06
2022-12-25T10:25:19.776Z,83.21
2022-12-25T10:27:54.708Z,81.41
2022-12-25T10:30:24.302Z,81.10
2022-12-25T10:32:54.804Z,80.87
2022-12-25T10:35:24.664Z,81.83
2022-12-25T10:38:02.569Z,80.74
2022-12-25T10:40:35.741Z,79.28
2022-12-25T10:43:11.555Z,79.20
2022-12-25T10:45:47.024Z,78.02
2022-12-25T10:48:19.365Z,79.28
2022-12-25T10:50:47.472Z,78.37
2022-12-25T10:53:29.057Z,77.73
2022-12-25T10:56:02.339Z,76.51
2022-12-25T10:58:31.062Z,76.49
2022-12-25T11:01:02.321Z,75.19
2022-12-25T11:03:35.510Z,74.45
2022-12-25T11:06:03.652Z,74.31
2022-12-25T11:08:34.731Z,74.27
2022-12-25T11:11:07.731Z,74.05
2022-12-25T11:13:40.994Z,74.00
2022-12-25T11:16:13.846Z,74.09
2022-12-25T11:18:53.213Z,73.99
2022-12-25T11:21:25.566Z,74.89
2022-12-25T11:23:59.662Z,74.76
2022-12-25T11:26:29.247Z,74.69
2022-12-25T11:28:58.197Z,75.37
2022-12-25T11:31:37.766Z,75.70
2022-12-25T11:34:11.579Z,74.93
2022-12-25T11:36:49.798Z,74.31
2022-12-25T11:39:21.870Z,74.00
2022-12-25T11:41:53.956Z,73.17
2022-12-25T11:44:40.824Z,73.73
2022-12-25T11:47:18.385Z,73.16
2022-12-25T11:50:01.511Z,73.52
2022-12-25T11:52:34.906Z,73.36
2022-12-25T11:55:37.303Z,71.72
2022-12-25T11:58:15.756Z,70.99
2022-12-25T12:00:46.496Z,70.85
2022-12-25T12:03:27.951Z,69.61
2022-12-25T12:06:04.908Z,70.19
2022-12-25T12:08:35.395Z,68.44
2022-12-25T12:11:23.642Z,69.89
2022-12-25T12:14:00.833Z,68.32
2022-12-25T12:16:28.928Z,68.06
2022-12-25T12:18:56.702Z,68.50
2022-12-25T12:21:30.151Z,68.13
2022-12-25T12:24:18.806Z,68.24
2022-12-25T12:26:48.016Z,67.81
2022-12-25T12:29:43.536Z,68.02
2022-12-25T12:32:29.371Z,67.40
2022-12-25T12:34:58.056Z,66.84
2022-12-25T12:37:32.988Z,67.84
2022-12-25T12:40:02.389Z,66.89
2022-12-25T12:42:32.991Z,67.06
2022-12-25T12:45:25.228Z,67.22
2022-12-25T12:47:53.767Z,67.85
2022-12-25T12:50:32.778Z,68.19
2022-12-25T12:53:05.625Z,68.69
2022-12-25T12:55:35.588Z,69.53
2022-12-25T12:58:05.803Z,69.28
2022-12-25T13:00:46.612Z,70.44
2022-12-25T13:03:17.058Z,72.17
2022-12-25T13:05:56.128Z,73.13
2022-12-25T13:08:48.313Z,73.68
2022-12-25T13:11:21.273Z,74.20
2022-12-25T13:13:52.169Z,74.41
2022-12-25T13:16:28.237Z,74.34
2022-12-25T13:18:56.752Z,74.22
2022-12-25T13:21:27.227Z,73.58
2022-12-25T13:24:10.635Z,73.13
2022-12-25T13:26:39.480Z,72.97
2022-12-25T13:29:11.482Z,73.18
2022-12-25T13:31:41.305Z,73.28
2022-12-25T13:34:31.676Z,72.94
2022-12-25T13:37:06.035Z,72.92
2022-12-25T13:39:34.910Z,73.23
2022-12-25T13:42:06.796Z,72.94
2022-12-25T13:44:50.905Z,72.95
2022-12-25T13:47:37.684Z,73.11
2022-12-25T13:50:20.610Z,73.83
2022-12-25T13:52:48.860Z,74.94
2022-12-25T13:55:19.863Z,75.65
2022-12-25T13:58:07.078Z,76.55
2022-12-25T14:00:45.235Z,76.98
2022-12-25T14:03:21.951Z,76.62
2022-12-25T14:06:16.153Z,77.19
2022-12-25T14:08:44.949Z,77.75
2022-12-25T14:11:16.346Z,78.21
2022-12-25T14:13:46.539Z,78.57
2022-12-25T14:16:20.700Z,78.74
2022-12-25T14:18:57.321Z,79.18
2022-12-25T14:21:40.923Z,79.65
2022-12-25T14:24:14.938Z,80.21
2022-12-25T14:26:43.163Z,80.76
2022-12-25T14:29:22.471Z,81.15
2022-12-25T14:31:52.674Z,81.82
2022-12-25T14:34:23.088Z,82.31
2022-12-25T14:36:52.609Z,83.00
2022-12-25T14:39:41.017Z,83.65
2022-12-25T14:42:19.125Z,84.51
2022-12-25T14:44:56.631Z,85.02
2022-12-25T14:47:24.064Z,85.64
2022-12-25T14:49:53.807Z,86.42
2022-12-25T14:52:44.121Z,86.80
2022-12-25T14:55:24.408Z,87.80
2022-12-25T14:57:56.087Z,88.39
2022-12-25T15:00:31.970Z,88.81
2022-12-25T15:03:01.026Z,89.30
2022-12-25T15:06:02.208Z,89.75
2022-12-25T15:08:31.059Z,90.41
2022-12-25T15:11:01.745Z,90.54
2022-12-25T15:13:31.390Z,91.09
2022-12-25T15:16:17.720Z,91.86
2022-12-25T15:18:46.911Z,92.49
2022-12-25T15:21:25.687Z,92.86
2022-12-25T15:23:58.497Z,94.15
2022-12-25T15:26:30.776Z,95.60
2022-12-25T15:28:58.971Z,95.85
2022-12-25T15:31:31.744Z,95.80
2022-12-25T15:34:02.316Z,95.88
2022-12-25T15:36:30.216Z,96.24
2022-12-25T15:38:57.906Z,97.16
2022-12-25T15:41:50.307Z,98.36
2022-12-25T15:44:18.557Z,99.78
2022-12-25T15:46:46.624Z,100.00
2022-12-25T15:49:15.265Z,100.00
2022-12-25T15:51:43.924Z,100.00
2022-12-25T15:54:11.654Z,100.00
2022-12-25T15:56:43.345Z,100.00
2022-12-25T15:59:13.258Z,100.00
2022-12-25T16:02:13.260Z,100.00
2022-12-25T16:04:42.484Z,100.00
2022-12-25T16:07:23.566Z,100.00
2022-12-25T16:09:52.008Z,100.00
2022-12-25T16:12:20.024Z,100.00
2022-12-25T16:14:47.475Z,100.00
2022-12-25T16:17:16.162Z,100.00
2022-12-25T16:19:44.868Z,100.00
2022-12-25T16:22:14.303Z,100.00
2022-12-25T16:24:42.112Z,100.00
2022-12-25T16:27:09.634Z,100.00
2022-12-25T16:29:37.172Z,100.00
2022-12-25T16:32:04.999Z,100.00
2022-12-25T16:34:32.484Z,100.00
2022-12-25T16:36:59.973Z,100.00
2022-12-25T16:39:27.659Z,100.00
2022-12-25T16:41:55.174Z,100.00
2022-12-25T16:44:22.661Z,100.00
2022-12-25T16:46:50.491Z,100.00
2022-12-25T16:49:18.029Z,100.00
2022-12-25T16:51:46.049Z,100.00
2022-12-25T16:54:13.761Z,100.00
2022-12-25T16:56:41.567Z,100.00
2022-12-25T16:59:09.238Z,100.00
2022-12-25T17:01:43.181Z,100.00
2022-12-25T17:04:11.074Z,100.00
2022-12-25T17:06:38.927Z,100.00
2022-12-25T17:09:07.554Z,100.00
2022-12-25T17:11:35.046Z,100.00
2022-12-25T17:14:04.321Z,100.00
2022-12-25T17:16:34.742Z,100.00
2022-12-25T17:19:08.137Z,100.00
2022-12-25T17:21:38.177Z,100.00
2022-12-25T17:24:06.710Z,100.00
2022-12-25T17:26:34.164Z,100.00
2022-12-25T17:29:01.767Z,100.00
2022-12-25T17:31:30.464Z,100.00
2022-12-25T17:34:00.675Z,100.00
2022-12-25T17:36:28.758Z,100.00
2022-12-25T17:38:58.431Z,100.00
2022-12-25T17:41:25.950Z,100.00
2022-12-25T17:43:53.622Z,100.00
2022-12-25T17:46:26.448Z,100.00
2022-12-25T17:48:56.342Z,100.00
2022-12-25T17:51:26.961Z,100.00
2022-12-25T17:53:57.036Z,100.00
2022-12-25T17:56:25.321Z,100.00
2022-12-25T17:58:55.214Z,100.00
2022-12-25T18:01:24.863Z,100.00
2022-12-25T18:03:53.125Z,100.00
2022-12-25T18:06:22.780Z,100.00
2022-12-25T18:08:50.341Z,100.00
2022-12-25T18:11:24.039Z,100.00
2022-12-25T18:13:52.293Z,100.00
2022-12-25T18:16:23.303Z,100.00
2022-12-25T18:18:52.561Z,100.00
2022-12-25T18:21:22.274Z,100.00
2022-12-25T18:23:50.426Z,100.00
2022-12-25T18:26:20.238Z,100.00
2022-12-25T18:28:50.019Z,100.00
2022-12-25T18:31:22.828Z,100.00
2022-12-25T18:33:51.766Z,100.00
2022-12-25T18:36:22.992Z,100.00
2022-12-25T18:38:52.607Z,100.00
2022-12-25T18:41:21.907Z,100.00
2022-12-25T18:43:53.159Z,100.00
2022-12-25T18:46:25.574Z,100.00
2022-12-25T18:48:55.769Z,100.00
2022-12-25T18:51:24.783Z,100.00
2022-12-25T18:53:52.327Z,100.00
2022-12-25T18:56:20.420Z,100.00
2022-12-25T18:58:48.223Z,100.00
2022-12-25T19:01:23.654Z,100.00
2022-12-25T19:03:57.164Z,100.00
2022-12-25T19:06:32.752Z,100.00
2022-12-25T19:09:00.795Z,100.00
2022-12-25T19:11:28.218Z,100.00
2022-12-25T19:13:56.163Z,100.00
2022-12-25T19:16:24.071Z,100.00
2022-12-25T19:18:51.547Z,100.00
2022-12-25T19:21:19.217Z,100.00
2022-12-25T19:23:47.131Z,100.00
2022-12-25T19:26:14.573Z,100.00
2022-12-25T19:28:42.207Z,100.00
2022-12-25T19:31:10.812Z,100.00
2022-12-25T19:33:41.608Z,100.00
2022-12-25T19:36:12.585Z,100.00
2022-12-25T19:38:40.615Z,100.00
2022-12-25T19:41:16.870Z,100.00
2022-12-25T19:43:47.672Z,100.00
2022-12-25T19:46:18.802Z,100.00
2022-12-25T19:48:46.870Z,100.00
2022-12-25T19:51:27.833Z,100.00
2022-12-25T19:53:56.576Z,100.00
2022-12-25T19:56:25.034Z,100.00
2022-12-25T19:58:53.270Z,100.00
2022-12-25T20:01:23.168Z,100.00
2022-12-25T20:03:51.064Z,100.00
2022-12-25T20:06:24.950Z,100.00
2022-12-25T20:08:55.355Z,100.00
2022-12-25T20:11:25.448Z,100.00
2022-12-25T20:13:53.938Z,100.00
2022-12-25T20:16:23.822Z,100.00
2022-12-25T20:18:52.447Z,100.00
2022-12-25T20:21:21.630Z,100.00
2022-12-25T20:23:51.650Z,100.00
2022-12-25T20:26:22.193Z,100.00
2022-12-25T20:28:50.163Z,100.00
2022-12-25T20:31:29.562Z,100.00
2022-12-25T20:33:59.511Z,100.00
2022-12-25T20:36:31.186Z,100.00
2022-12-25T20:39:04.675Z,100.00
2022-12-25T20:41:32.274Z,100.00
2022-12-25T20:44:01.858Z,100.00
2022-12-25T20:46:30.229Z,100.00
2022-12-25T20:48:57.832Z,100.00
2022-12-25T20:51:26.207Z,100.00
2022-12-25T20:53:54.927Z,100.00
2022-12-25T20:56:24.799Z,100.00
2022-12-25T20:58:57.443Z,100.00
2022-12-25T21:01:27.032Z,100.00
2022-12-25T21:03:55.136Z,100.00
2022-12-25T21:06:23.440Z,100.00
2022-12-25T21:08:51.358Z,100.00
2022-12-25T21:11:21.251Z,100.00
2022-12-25T21:13:49.632Z,100.00
2022-12-25T21:16:20.271Z,100.00
2022-12-25T21:18:49.361Z,100.00
2022-12-25T21:21:17.175Z,100.00
2022-12-25T21:23:45.601Z,100.00
2022-12-25T21:26:19.698Z,100.00
2022-12-25T21:28:49.287Z,100.00
2022-12-25T21:31:17.330Z,100.00
2022-12-25T21:33:55.102Z,100.00
2022-12-25T21:36:29.575Z,100.00
2022-12-25T21:39:06.315Z,100.00
2022-12-25T21:41:36.816Z,100.00
2022-12-25T21:44:05.441Z,100.00
2022-12-25T21:46:32.909Z,100.00
2022-12-25T21:49:01.119Z,100.00
2022-12-25T21:51:49.941Z,100.00
2022-12-25T21:54:21.838Z,100.00
2022-12-25T21:56:50.050Z,100.00
2022-12-25T21:59:20.548Z,100.00
2022-12-25T22:01:49.441Z,100.00
2022-12-25T22:04:18.599Z,100.00
2022-12-25T22:07:05.023Z,100.00
2022-12-25T22:09:33.234Z,100.00
2022-12-25T22:12:19.455Z,100.00
2022-12-25T22:14:54.071Z,100.00
2022-12-25T22:17:44.629Z,100.00
2022-12-25T22:20:21.730Z,100.00
2022-12-25T22:22:51.039Z,100.00
2022-12-25T22:25:20.251Z,100.00
2022-12-25T22:27:48.827Z,100.00
2022-12-25T22:30:22.268Z,100.00
2022-12-25T22:32:51.905Z,100.00
2022-12-25T22:35:20.719Z,100.00
2022-12-25T22:37:49.607Z,100.00
2022-12-25T22:40:19.480Z,100.00
2022-12-25T22:42:47.270Z,100.00
2022-12-25T22:45:16.304Z,100.00
2022-12-25T22:47:44.218Z,100.00
2022-12-25T22:50:14.621Z,100.00
2022-12-25T22:52:42.948Z,100.00
2022-12-25T22:55:10.978Z,100.00
2022-12-25T22:57:38.441Z,100.00
2022-12-25T23:00:08.887Z,100.00
2022-12-25T23:02:36.947Z,100.00
2022-12-25T23:05:04.883Z,100.00
2022-12-25T23:07:32.319Z,100.00
2022-12-25T23:10:00.240Z,100.00
2022-12-25T23:12:46.336Z,100.00
2022-12-25T23:15:14.095Z,100.00
2022-12-25T23:18:00.057Z,100.00
2022-12-25T23:20:46.328Z,100.00
2022-12-25T23:23:35.458Z,100.00
2022-12-25T23:26:09.820Z,100.00
2022-12-25T23:28:58.049Z,100.00
2022-12-25T23:31:32.446Z,100.00
2022-12-25T23:34:01.096Z,100.00
2022-12-25T23:36:28.941Z,100.00
2022-12-25T23:38:56.598Z,100.00
2022-12-25T23:41:24.020Z,99.96
2022-12-25T23:43:51.750Z,99.63
2022-12-25T23:46:19.796Z,99.62
2022-12-25T23:48:47.717Z,99.58
2022-12-25T23:51:15.438Z,99.28
2022-12-25T23:53:42.920Z,99.11
2022-12-25T23:56:10.849Z,99.07
2022-12-25T23:58:38.808Z,98.98
